createdAt,value
2018-07-03T00:00:12.346Z,1026.54970646
2018-07-03T00:00:24.803Z,1026.54970646
2018-07-03T00:00:37.222Z,1026.54970646
2018-07-03T00:00:49.631Z,1026.54970646
2018-07-03T00:01:02.101Z,1026.54970646
2018-07-03T00:01:14.585Z,1026.54970646
2018-07-03T00:01:27.107Z,1026.54970646
2018-07-03T00:01:39.511Z,1026.54970646
2018-07-03T00:01:51.908Z,1026.54970646
2018-07-03T00:02:04.311Z,1026.4819787
2018-07-03T00:02:16.772Z,1026.4819787
2018-07-03T00:02:29.176Z,1026.4819787
2018-07-03T00:02:41.571Z,1026.4819787
2018-07-03T00:02:53.983Z,1026.4819787
2018-07-03T00:03:06.386Z,1026.54970646
2018-07-03T00:03:18.786Z,1026.54970646
2018-07-03T00:03:31.197Z,1026.54970646
2018-07-03T00:03:43.618Z,1026.54970646
2018-07-03T00:03:56.011Z,1026.54970646
2018-07-03T00:04:08.419Z,1026.54970646
2018-07-03T00:04:20.819Z,1026.54970646
2018-07-03T00:04:33.212Z,1026.54970646
2018-07-03T00:04:45.616Z,1026.54970646
2018-07-03T00:04:58.009Z,1026.54970646
2018-07-03T00:05:10.427Z,1026.58357035
2018-07-03T00:05:22.824Z,1026.58357035
2018-07-03T00:05:35.240Z,1026.58357035
2018-07-03T00:05:47.662Z,1026.58357035
2018-07-03T00:06:00.048Z,1026.58357035
2018-07-03T00:06:12.466Z,1026.51584258
2018-07-03T00:06:24.977Z,1026.51584258
2018-07-03T00:06:37.377Z,1026.51584258
2018-07-03T00:06:49.773Z,1026.51584258
2018-07-03T00:07:02.444Z,1026.54970646
2018-07-03T00:07:14.851Z,1026.54970646
2018-07-03T00:07:27.247Z,1026.54970646
2018-07-03T00:07:39.685Z,1026.54970646
2018-07-03T00:07:52.113Z,1026.54970646
2018-07-03T00:08:04.522Z,1026.44811482
2018-07-03T00:08:16.915Z,1026.44811482
2018-07-03T00:08:29.317Z,1026.44811482
2018-07-03T00:08:41.854Z,1026.44811482
2018-07-03T00:08:54.269Z,1026.44811482
2018-07-03T00:09:06.828Z,1026.54970646
2018-07-03T00:09:19.228Z,1026.54970646
2018-07-03T00:09:31.625Z,1026.54970646
2018-07-03T00:09:44.022Z,1026.54970646
2018-07-03T00:09:56.432Z,1026.54970646
2018-07-03T00:10:08.823Z,1026.54970646
2018-07-03T00:10:21.217Z,1026.54970646
2018-07-03T00:10:33.618Z,1026.54970646
2018-07-03T00:10:46.016Z,1026.54970646
2018-07-03T00:10:58.551Z,1026.54970646
2018-07-03T00:11:10.995Z,1026.61743423
2018-07-03T00:11:23.387Z,1026.61743423
2018-07-03T00:11:35.828Z,1026.61743423
2018-07-03T00:11:48.240Z,1026.61743423
2018-07-03T00:12:00.646Z,1026.61743423
2018-07-03T00:12:13.062Z,1026.58357035
2018-07-03T00:12:25.454Z,1026.58357035
2018-07-03T00:12:37.849Z,1026.58357035
2018-07-03T00:12:50.408Z,1026.58357035
2018-07-03T00:13:02.812Z,1026.54970646
2018-07-03T00:13:15.214Z,1026.54970646
2018-07-03T00:13:27.621Z,1026.54970646
2018-07-03T00:13:40.013Z,1026.54970646
2018-07-03T00:13:52.436Z,1026.54970646
2018-07-03T00:14:04.848Z,1026.54970646
2018-07-03T00:14:17.253Z,1026.54970646
2018-07-03T00:14:29.650Z,1026.54970646
2018-07-03T00:14:42.041Z,1026.54970646
2018-07-03T00:14:54.426Z,1026.54970646
2018-07-03T00:15:06.844Z,1026.54970646
2018-07-03T00:15:19.243Z,1026.54970646
2018-07-03T00:15:31.654Z,1026.54970646
2018-07-03T00:15:44.044Z,1026.54970646
2018-07-03T00:15:56.457Z,1026.54970646
2018-07-03T00:16:08.858Z,1026.54970646
2018-07-03T00:16:21.267Z,1026.54970646
2018-07-03T00:16:33.677Z,1026.54970646
2018-07-03T00:16:46.080Z,1026.54970646
2018-07-03T00:16:58.495Z,1026.54970646
2018-07-03T00:17:10.915Z,1026.58357035
2018-07-03T00:17:23.361Z,1026.58357035
2018-07-03T00:17:35.778Z,1026.58357035
2018-07-03T00:17:48.244Z,1026.58357035
2018-07-03T00:18:00.636Z,1026.58357035
2018-07-03T00:18:13.056Z,1026.61743423
2018-07-03T00:18:25.452Z,1026.61743423
2018-07-03T00:18:37.886Z,1026.61743423
2018-07-03T00:18:50.288Z,1026.61743423
2018-07-03T00:19:02.685Z,1026.61743423
2018-07-03T00:19:15.099Z,1026.61743423
2018-07-03T00:19:27.506Z,1026.61743423
2018-07-03T00:19:39.885Z,1026.61743423
2018-07-03T00:19:52.284Z,1026.61743423
2018-07-03T00:20:04.699Z,1026.58357035
2018-07-03T00:20:17.088Z,1026.58357035
2018-07-03T00:20:29.489Z,1026.58357035
2018-07-03T00:20:41.878Z,1026.58357035
2018-07-03T00:20:54.319Z,1026.58357035
2018-07-03T00:21:06.729Z,1026.61743423
2018-07-03T00:21:19.127Z,1026.61743423
2018-07-03T00:21:31.666Z,1026.61743423
2018-07-03T00:21:44.104Z,1026.61743423
2018-07-03T00:21:56.493Z,1026.61743423
2018-07-03T00:22:08.893Z,1026.65129811
2018-07-03T00:22:21.334Z,1026.65129811
2018-07-03T00:22:33.735Z,1026.65129811
2018-07-03T00:22:46.124Z,1026.65129811
2018-07-03T00:22:58.507Z,1026.65129811
2018-07-03T00:23:10.918Z,1026.54970646
2018-07-03T00:23:23.310Z,1026.54970646
2018-07-03T00:23:35.754Z,1026.54970646
2018-07-03T00:23:48.158Z,1026.54970646
2018-07-03T00:24:00.561Z,1026.54970646
2018-07-03T00:24:12.959Z,1026.61743423
2018-07-03T00:24:25.362Z,1026.61743423
2018-07-03T00:24:37.755Z,1026.61743423
2018-07-03T00:24:50.149Z,1026.61743423
2018-07-03T00:25:02.594Z,1026.61743423
2018-07-03T00:25:15.007Z,1026.61743423
2018-07-03T00:25:27.398Z,1026.61743423
2018-07-03T00:25:39.802Z,1026.61743423
2018-07-03T00:25:52.196Z,1026.61743423
2018-07-03T00:26:04.609Z,1026.65129811
2018-07-03T00:26:17.005Z,1026.65129811
2018-07-03T00:26:29.419Z,1026.65129811
2018-07-03T00:26:41.831Z,1026.65129811
2018-07-03T00:26:54.246Z,1026.65129811
2018-07-03T00:27:06.650Z,1026.61743423
2018-07-03T00:27:19.056Z,1026.61743423
2018-07-03T00:27:31.456Z,1026.61743423
2018-07-03T00:27:43.861Z,1026.61743423
2018-07-03T00:27:56.258Z,1026.61743423
2018-07-03T00:28:08.659Z,1026.68516199
2018-07-03T00:28:21.067Z,1026.68516199
2018-07-03T00:28:33.468Z,1026.68516199
2018-07-03T00:28:45.868Z,1026.68516199
2018-07-03T00:28:58.278Z,1026.68516199
2018-07-03T00:29:10.667Z,1026.54970646
2018-07-03T00:29:23.072Z,1026.54970646
2018-07-03T00:29:35.480Z,1026.54970646
2018-07-03T00:29:47.880Z,1026.54970646
2018-07-03T00:30:00.298Z,1026.54970646
2018-07-03T00:30:12.714Z,1026.54970646
2018-07-03T00:30:25.273Z,1026.54970646
2018-07-03T00:30:37.685Z,1026.54970646
2018-07-03T00:30:50.112Z,1026.54970646
2018-07-03T00:31:02.525Z,1026.54970646
2018-07-03T00:31:14.954Z,1026.54970646
2018-07-03T00:31:27.393Z,1026.54970646
2018-07-03T00:31:39.792Z,1026.54970646
2018-07-03T00:31:52.195Z,1026.54970646
2018-07-03T00:32:04.608Z,1026.61743423
2018-07-03T00:32:17.035Z,1026.61743423
2018-07-03T00:32:29.456Z,1026.61743423
2018-07-03T00:32:41.857Z,1026.61743423
2018-07-03T00:32:54.243Z,1026.61743423
2018-07-03T00:33:06.650Z,1026.61743423
2018-07-03T00:33:19.062Z,1026.61743423
2018-07-03T00:33:31.475Z,1026.61743423
2018-07-03T00:33:43.883Z,1026.61743423
2018-07-03T00:33:56.278Z,1026.61743423
2018-07-03T00:34:08.707Z,1026.54970646
2018-07-03T00:34:21.104Z,1026.54970646
2018-07-03T00:34:33.509Z,1026.54970646
2018-07-03T00:34:45.918Z,1026.54970646
2018-07-03T00:34:58.386Z,1026.54970646
2018-07-03T00:35:10.785Z,1026.54970646
2018-07-03T00:35:23.187Z,1026.54970646
2018-07-03T00:35:35.598Z,1026.54970646
2018-07-03T00:35:48.013Z,1026.54970646
2018-07-03T00:36:00.435Z,1026.54970646
2018-07-03T00:36:12.825Z,1026.51584258
2018-07-03T00:36:25.491Z,1026.51584258
2018-07-03T00:36:37.900Z,1026.51584258
2018-07-03T00:36:50.297Z,1026.51584258
2018-07-03T00:37:02.711Z,1026.54970646
2018-07-03T00:37:15.117Z,1026.54970646
2018-07-03T00:37:27.536Z,1026.54970646
2018-07-03T00:37:39.933Z,1026.54970646
2018-07-03T00:37:52.343Z,1026.54970646
2018-07-03T00:38:04.756Z,1026.51584258
2018-07-03T00:38:17.156Z,1026.51584258
2018-07-03T00:38:29.589Z,1026.51584258
2018-07-03T00:38:41.998Z,1026.51584258
2018-07-03T00:38:54.457Z,1026.51584258
2018-07-03T00:39:06.861Z,1026.58357035
2018-07-03T00:39:19.257Z,1026.58357035
2018-07-03T00:39:31.665Z,1026.58357035
2018-07-03T00:39:44.073Z,1026.58357035
2018-07-03T00:39:56.492Z,1026.58357035
2018-07-03T00:40:08.914Z,1026.54970646
2018-07-03T00:40:21.309Z,1026.54970646
2018-07-03T00:40:33.704Z,1026.54970646
2018-07-03T00:40:46.092Z,1026.54970646
2018-07-03T00:40:59.049Z,1026.54970646
2018-07-03T00:41:11.800Z,1026.51584258
2018-07-03T00:41:24.204Z,1026.51584258
2018-07-03T00:41:36.598Z,1026.51584258
2018-07-03T00:41:48.987Z,1026.51584258
2018-07-03T00:42:01.389Z,1026.51584258
2018-07-03T00:42:13.823Z,1026.61743423
2018-07-03T00:42:26.294Z,1026.61743423
2018-07-03T00:42:38.701Z,1026.61743423
2018-07-03T00:42:51.102Z,1026.61743423
2018-07-03T00:43:03.512Z,1026.58357035
2018-07-03T00:43:15.917Z,1026.58357035
2018-07-03T00:43:28.307Z,1026.58357035
2018-07-03T00:43:40.708Z,1026.58357035
2018-07-03T00:43:53.099Z,1026.58357035
2018-07-03T00:44:05.505Z,1026.61743423
2018-07-03T00:44:17.900Z,1026.61743423
2018-07-03T00:44:30.311Z,1026.61743423
2018-07-03T00:44:42.728Z,1026.61743423
2018-07-03T00:44:55.132Z,1026.61743423
2018-07-03T00:45:07.575Z,1026.58357035
2018-07-03T00:45:19.980Z,1026.58357035
2018-07-03T00:45:32.475Z,1026.58357035
2018-07-03T00:45:44.874Z,1026.58357035
2018-07-03T00:45:57.425Z,1026.58357035
2018-07-03T00:46:09.842Z,1026.54970646
2018-07-03T00:46:22.241Z,1026.54970646
2018-07-03T00:46:34.636Z,1026.54970646
2018-07-03T00:46:47.037Z,1026.54970646
2018-07-03T00:46:59.438Z,1026.54970646
2018-07-03T00:47:11.846Z,1026.44811482
2018-07-03T00:47:24.254Z,1026.44811482
2018-07-03T00:47:36.659Z,1026.44811482
2018-07-03T00:47:49.077Z,1026.44811482
2018-07-03T00:48:01.473Z,1026.44811482
2018-07-03T00:48:13.890Z,1026.54970646
2018-07-03T00:48:26.300Z,1026.54970646
2018-07-03T00:48:38.864Z,1026.54970646
2018-07-03T00:48:51.267Z,1026.54970646
2018-07-03T00:49:03.675Z,1026.51584258
2018-07-03T00:49:16.082Z,1026.51584258
2018-07-03T00:49:28.475Z,1026.51584258
2018-07-03T00:49:40.887Z,1026.51584258
2018-07-03T00:49:53.280Z,1026.51584258
2018-07-03T00:50:05.689Z,1026.51584258
2018-07-03T00:50:18.118Z,1026.51584258
2018-07-03T00:50:30.510Z,1026.51584258
2018-07-03T00:50:42.903Z,1026.51584258
2018-07-03T00:50:55.327Z,1026.51584258
2018-07-03T00:51:07.749Z,1026.54970646
2018-07-03T00:51:20.154Z,1026.54970646
2018-07-03T00:51:32.691Z,1026.54970646
2018-07-03T00:51:45.080Z,1026.54970646
2018-07-03T00:51:57.474Z,1026.54970646
2018-07-03T00:52:09.877Z,1026.51584258
2018-07-03T00:52:22.281Z,1026.51584258
2018-07-03T00:52:34.685Z,1026.51584258
2018-07-03T00:52:47.082Z,1026.51584258
2018-07-03T00:52:59.487Z,1026.51584258
2018-07-03T00:53:11.881Z,1026.51584258
2018-07-03T00:53:24.283Z,1026.51584258
2018-07-03T00:53:36.682Z,1026.51584258
2018-07-03T00:53:49.080Z,1026.51584258
2018-07-03T00:54:01.476Z,1026.51584258
2018-07-03T00:54:13.885Z,1026.54970646
2018-07-03T00:54:26.286Z,1026.54970646
2018-07-03T00:54:38.698Z,1026.54970646
2018-07-03T00:54:51.105Z,1026.54970646
2018-07-03T00:55:03.533Z,1026.58357035
2018-07-03T00:55:15.957Z,1026.58357035
2018-07-03T00:55:28.349Z,1026.58357035
2018-07-03T00:55:40.940Z,1026.58357035
2018-07-03T00:55:53.339Z,1026.58357035
2018-07-03T00:56:05.738Z,1026.54970646
2018-07-03T00:56:18.124Z,1026.54970646
2018-07-03T00:56:30.615Z,1026.54970646
2018-07-03T00:56:43.017Z,1026.54970646
2018-07-03T00:56:55.438Z,1026.54970646
2018-07-03T00:57:07.860Z,1026.51584258
2018-07-03T00:57:20.259Z,1026.51584258
2018-07-03T00:57:32.656Z,1026.51584258
2018-07-03T00:57:45.074Z,1026.51584258
2018-07-03T00:57:57.485Z,1026.51584258
2018-07-03T00:58:09.881Z,1026.54970646
2018-07-03T00:58:22.283Z,1026.54970646
2018-07-03T00:58:34.685Z,1026.54970646
2018-07-03T00:58:47.088Z,1026.54970646
2018-07-03T00:58:59.498Z,1026.54970646
2018-07-03T00:59:11.901Z,1026.51584258
2018-07-03T00:59:24.344Z,1026.51584258
2018-07-03T00:59:36.738Z,1026.51584258
2018-07-03T00:59:49.130Z,1026.51584258
2018-07-03T01:00:01.534Z,1026.51584258
2018-07-03T01:00:14.037Z,1026.51584258
2018-07-03T01:00:26.481Z,1026.51584258
2018-07-03T01:00:38.907Z,1026.51584258
2018-07-03T01:00:51.316Z,1026.51584258
2018-07-03T01:01:03.771Z,1026.54970646
2018-07-03T01:01:16.342Z,1026.54970646
2018-07-03T01:01:28.821Z,1026.54970646
2018-07-03T01:01:41.234Z,1026.54970646
2018-07-03T01:01:53.639Z,1026.54970646
2018-07-03T01:02:06.032Z,1026.54970646
2018-07-03T01:02:18.485Z,1026.54970646
2018-07-03T01:02:30.891Z,1026.54970646
2018-07-03T01:02:43.310Z,1026.54970646
2018-07-03T01:02:55.895Z,1026.54970646
2018-07-03T01:03:08.314Z,1026.58357035
2018-07-03T01:03:20.726Z,1026.58357035
2018-07-03T01:03:33.131Z,1026.58357035
2018-07-03T01:03:45.535Z,1026.58357035
2018-07-03T01:03:57.938Z,1026.58357035
2018-07-03T01:04:10.354Z,1026.4819787
2018-07-03T01:04:22.787Z,1026.4819787
2018-07-03T01:04:35.210Z,1026.4819787
2018-07-03T01:04:47.611Z,1026.4819787
2018-07-03T01:05:00.051Z,1026.4819787
2018-07-03T01:05:12.485Z,1026.54970646
2018-07-03T01:05:24.885Z,1026.54970646
2018-07-03T01:05:37.345Z,1026.54970646
2018-07-03T01:05:49.762Z,1026.54970646
2018-07-03T01:06:02.162Z,1026.54970646
2018-07-03T01:06:14.572Z,1026.54970646
2018-07-03T01:06:26.978Z,1026.54970646
2018-07-03T01:06:39.405Z,1026.54970646
2018-07-03T01:06:51.803Z,1026.54970646
2018-07-03T01:07:04.328Z,1026.51584258
2018-07-03T01:07:16.727Z,1026.51584258
2018-07-03T01:07:29.122Z,1026.51584258
2018-07-03T01:07:41.526Z,1026.51584258
2018-07-03T01:07:53.973Z,1026.51584258
2018-07-03T01:08:06.358Z,1026.51584258
2018-07-03T01:08:18.761Z,1026.51584258
2018-07-03T01:08:31.157Z,1026.51584258
2018-07-03T01:08:43.658Z,1026.51584258
2018-07-03T01:08:56.073Z,1026.51584258
2018-07-03T01:09:08.611Z,1026.51584258
2018-07-03T01:09:21.014Z,1026.51584258
2018-07-03T01:09:33.407Z,1026.51584258
2018-07-03T01:09:45.798Z,1026.51584258
2018-07-03T01:09:58.201Z,1026.51584258
2018-07-03T01:10:10.606Z,1026.4819787
2018-07-03T01:10:22.996Z,1026.4819787
2018-07-03T01:10:35.555Z,1026.4819787
2018-07-03T01:10:47.950Z,1026.4819787
2018-07-03T01:11:00.352Z,1026.4819787
2018-07-03T01:11:12.778Z,1026.65129811
2018-07-03T01:11:25.169Z,1026.65129811
2018-07-03T01:11:37.555Z,1026.65129811
2018-07-03T01:11:49.980Z,1026.65129811
2018-07-03T01:12:02.379Z,1026.58357035
2018-07-03T01:12:14.779Z,1026.58357035
2018-07-03T01:12:27.173Z,1026.58357035
2018-07-03T01:12:39.561Z,1026.58357035
2018-07-03T01:12:51.964Z,1026.58357035
2018-07-03T01:13:04.362Z,1026.54970646
2018-07-03T01:13:16.754Z,1026.54970646
2018-07-03T01:13:29.156Z,1026.54970646
2018-07-03T01:13:41.554Z,1026.54970646
2018-07-03T01:13:53.955Z,1026.54970646
2018-07-03T01:14:06.349Z,1026.54970646
2018-07-03T01:14:18.746Z,1026.54970646
2018-07-03T01:14:31.151Z,1026.54970646
2018-07-03T01:14:43.561Z,1026.54970646
2018-07-03T01:14:55.958Z,1026.54970646
2018-07-03T01:15:08.351Z,1026.54970646
2018-07-03T01:15:20.755Z,1026.54970646
2018-07-03T01:15:33.183Z,1026.54970646
2018-07-03T01:15:45.584Z,1026.54970646
2018-07-03T01:15:57.986Z,1026.54970646
2018-07-03T01:16:10.416Z,1026.61743423
2018-07-03T01:16:22.853Z,1026.61743423
2018-07-03T01:16:35.281Z,1026.61743423
2018-07-03T01:16:47.729Z,1026.61743423
2018-07-03T01:17:00.135Z,1026.61743423
2018-07-03T01:17:12.538Z,1026.51584258
2018-07-03T01:17:24.931Z,1026.51584258
2018-07-03T01:17:37.330Z,1026.51584258
2018-07-03T01:17:49.735Z,1026.51584258
2018-07-03T01:18:02.140Z,1026.51584258
2018-07-03T01:18:14.541Z,1026.51584258
2018-07-03T01:18:26.954Z,1026.51584258
2018-07-03T01:18:39.352Z,1026.51584258
2018-07-03T01:18:51.742Z,1026.51584258
2018-07-03T01:19:04.141Z,1026.51584258
2018-07-03T01:19:16.546Z,1026.51584258
2018-07-03T01:19:28.942Z,1026.51584258
2018-07-03T01:19:41.339Z,1026.51584258
2018-07-03T01:19:53.738Z,1026.51584258
2018-07-03T01:20:06.133Z,1026.54970646
2018-07-03T01:20:18.533Z,1026.54970646
2018-07-03T01:20:30.958Z,1026.54970646
2018-07-03T01:20:43.413Z,1026.54970646
2018-07-03T01:20:55.859Z,1026.54970646
2018-07-03T01:21:08.265Z,1026.51584258
2018-07-03T01:21:20.673Z,1026.51584258
2018-07-03T01:21:33.127Z,1026.51584258
2018-07-03T01:21:45.523Z,1026.51584258
2018-07-03T01:21:57.932Z,1026.51584258
2018-07-03T01:22:10.455Z,1026.51584258
2018-07-03T01:22:22.850Z,1026.51584258
2018-07-03T01:22:35.247Z,1026.51584258
2018-07-03T01:22:47.654Z,1026.51584258
2018-07-03T01:23:00.078Z,1026.51584258
2018-07-03T01:23:12.482Z,1026.51584258
2018-07-03T01:23:24.874Z,1026.51584258
2018-07-03T01:23:37.269Z,1026.51584258
2018-07-03T01:23:49.672Z,1026.51584258
2018-07-03T01:24:02.071Z,1026.51584258
2018-07-03T01:24:14.472Z,1026.41425094
2018-07-03T01:24:26.879Z,1026.41425094
2018-07-03T01:24:39.322Z,1026.41425094
2018-07-03T01:24:51.722Z,1026.41425094
2018-07-03T01:25:04.122Z,1026.4819787
2018-07-03T01:25:16.527Z,1026.4819787
2018-07-03T01:25:28.924Z,1026.4819787
2018-07-03T01:25:41.321Z,1026.4819787
2018-07-03T01:25:53.718Z,1026.4819787
2018-07-03T01:26:06.105Z,1026.54970646
2018-07-03T01:26:18.508Z,1026.54970646
2018-07-03T01:26:30.914Z,1026.54970646
2018-07-03T01:26:43.304Z,1026.54970646
2018-07-03T01:26:55.702Z,1026.54970646
2018-07-03T01:27:08.146Z,1026.51584258
2018-07-03T01:27:20.539Z,1026.51584258
2018-07-03T01:27:32.977Z,1026.51584258
2018-07-03T01:27:45.365Z,1026.51584258
2018-07-03T01:27:57.828Z,1026.51584258
2018-07-03T01:28:10.245Z,1026.51584258
2018-07-03T01:28:22.639Z,1026.51584258
2018-07-03T01:28:35.038Z,1026.51584258
2018-07-03T01:28:47.450Z,1026.51584258
2018-07-03T01:28:59.843Z,1026.51584258
2018-07-03T01:29:12.239Z,1026.51584258
2018-07-03T01:29:24.639Z,1026.51584258
2018-07-03T01:29:37.042Z,1026.51584258
2018-07-03T01:29:49.435Z,1026.51584258
2018-07-03T01:30:01.820Z,1026.51584258
2018-07-03T01:30:14.232Z,1026.54970646
2018-07-03T01:30:26.628Z,1026.54970646
2018-07-03T01:30:39.036Z,1026.54970646
2018-07-03T01:30:51.429Z,1026.54970646
2018-07-03T01:31:03.822Z,1026.51584258
2018-07-03T01:31:16.225Z,1026.51584258
2018-07-03T01:31:28.674Z,1026.51584258
2018-07-03T01:31:41.058Z,1026.51584258
2018-07-03T01:31:53.462Z,1026.51584258
2018-07-03T01:32:05.850Z,1026.4819787
2018-07-03T01:32:18.237Z,1026.4819787
2018-07-03T01:32:30.641Z,1026.4819787
2018-07-03T01:32:43.031Z,1026.4819787
2018-07-03T01:32:55.479Z,1026.4819787
2018-07-03T01:33:07.883Z,1026.51584258
2018-07-03T01:33:20.281Z,1026.51584258
2018-07-03T01:33:32.723Z,1026.51584258
2018-07-03T01:33:45.131Z,1026.51584258
2018-07-03T01:33:57.522Z,1026.51584258
2018-07-03T01:34:09.915Z,1026.51584258
2018-07-03T01:34:22.305Z,1026.51584258
2018-07-03T01:34:34.711Z,1026.51584258
2018-07-03T01:34:47.095Z,1026.51584258
2018-07-03T01:34:59.496Z,1026.51584258
2018-07-03T01:35:11.885Z,1026.54970646
2018-07-03T01:35:24.276Z,1026.54970646
2018-07-03T01:35:36.668Z,1026.54970646
2018-07-03T01:35:49.078Z,1026.54970646
2018-07-03T01:36:01.511Z,1026.54970646
2018-07-03T01:36:14.711Z,1026.51584258
2018-07-03T01:36:27.386Z,1026.51584258
2018-07-03T01:36:39.789Z,1026.51584258
2018-07-03T01:36:52.190Z,1026.51584258
2018-07-03T01:37:04.602Z,1026.54970646
2018-07-03T01:37:17.003Z,1026.54970646
2018-07-03T01:37:29.406Z,1026.54970646
2018-07-03T01:37:41.829Z,1026.54970646
2018-07-03T01:37:54.232Z,1026.54970646
2018-07-03T01:38:06.667Z,1026.51584258
2018-07-03T01:38:19.051Z,1026.51584258
2018-07-03T01:38:31.448Z,1026.51584258
2018-07-03T01:38:43.834Z,1026.51584258
2018-07-03T01:38:56.218Z,1026.51584258
2018-07-03T01:39:08.672Z,1026.4819787
2018-07-03T01:39:21.060Z,1026.4819787
2018-07-03T01:39:33.453Z,1026.4819787
2018-07-03T01:39:45.862Z,1026.4819787
2018-07-03T01:39:58.245Z,1026.4819787
2018-07-03T01:40:10.636Z,1026.51584258
2018-07-03T01:40:23.039Z,1026.51584258
2018-07-03T01:40:35.437Z,1026.51584258
2018-07-03T01:40:47.830Z,1026.51584258
2018-07-03T01:41:00.382Z,1026.51584258
2018-07-03T01:41:13.018Z,1026.44811482
2018-07-03T01:41:25.409Z,1026.44811482
2018-07-03T01:41:37.799Z,1026.44811482
2018-07-03T01:41:50.197Z,1026.44811482
2018-07-03T01:42:02.599Z,1026.4819787
2018-07-03T01:42:14.990Z,1026.4819787
2018-07-03T01:42:27.393Z,1026.4819787
2018-07-03T01:42:39.793Z,1026.4819787
2018-07-03T01:42:52.196Z,1026.4819787
2018-07-03T01:43:04.675Z,1026.41425094
2018-07-03T01:43:17.067Z,1026.41425094
2018-07-03T01:43:29.446Z,1026.41425094
2018-07-03T01:43:41.852Z,1026.41425094
2018-07-03T01:43:54.264Z,1026.41425094
2018-07-03T01:44:06.667Z,1026.51584258
2018-07-03T01:44:19.068Z,1026.51584258
2018-07-03T01:44:31.484Z,1026.51584258
2018-07-03T01:44:43.883Z,1026.51584258
2018-07-03T01:44:56.295Z,1026.51584258
2018-07-03T01:45:08.685Z,1026.44811482
2018-07-03T01:45:21.089Z,1026.44811482
2018-07-03T01:45:33.498Z,1026.44811482
2018-07-03T01:45:45.890Z,1026.44811482
2018-07-03T01:45:58.621Z,1026.44811482
2018-07-03T01:46:11.023Z,1026.4819787
2018-07-03T01:46:23.427Z,1026.4819787
2018-07-03T01:46:35.828Z,1026.4819787
2018-07-03T01:46:48.239Z,1026.4819787
2018-07-03T01:47:00.675Z,1026.4819787
2018-07-03T01:47:13.071Z,1026.51584258
2018-07-03T01:47:25.476Z,1026.51584258
2018-07-03T01:47:37.875Z,1026.51584258
2018-07-03T01:47:50.281Z,1026.51584258
2018-07-03T01:48:02.672Z,1026.4819787
2018-07-03T01:48:15.169Z,1026.4819787
2018-07-03T01:48:27.571Z,1026.4819787
2018-07-03T01:48:40.167Z,1026.4819787
2018-07-03T01:48:52.553Z,1026.4819787
2018-07-03T01:49:04.944Z,1026.51584258
2018-07-03T01:49:17.352Z,1026.51584258
2018-07-03T01:49:29.742Z,1026.51584258
2018-07-03T01:49:42.152Z,1026.51584258
2018-07-03T01:49:54.548Z,1026.51584258
2018-07-03T01:50:06.940Z,1026.44811482
2018-07-03T01:50:19.338Z,1026.44811482
2018-07-03T01:50:31.723Z,1026.44811482
2018-07-03T01:50:44.107Z,1026.44811482
2018-07-03T01:50:56.496Z,1026.44811482
2018-07-03T01:51:08.912Z,1026.41425094
2018-07-03T01:51:21.364Z,1026.41425094
2018-07-03T01:51:33.762Z,1026.41425094
2018-07-03T01:51:46.161Z,1026.41425094
2018-07-03T01:51:58.550Z,1026.41425094
2018-07-03T01:52:11.173Z,1026.4819787
2018-07-03T01:52:23.562Z,1026.4819787
2018-07-03T01:52:35.978Z,1026.4819787
2018-07-03T01:52:48.372Z,1026.4819787
2018-07-03T01:53:00.770Z,1026.4819787
2018-07-03T01:53:13.168Z,1026.41425094
2018-07-03T01:53:25.554Z,1026.41425094
2018-07-03T01:53:38.101Z,1026.41425094
2018-07-03T01:53:50.495Z,1026.41425094
2018-07-03T01:54:02.898Z,1026.44811482
2018-07-03T01:54:15.301Z,1026.44811482
2018-07-03T01:54:27.689Z,1026.44811482
2018-07-03T01:54:40.091Z,1026.44811482
2018-07-03T01:54:52.490Z,1026.44811482
2018-07-03T01:55:04.880Z,1026.41425094
2018-07-03T01:55:17.269Z,1026.41425094
2018-07-03T01:55:29.666Z,1026.41425094
2018-07-03T01:55:42.067Z,1026.41425094
2018-07-03T01:55:54.466Z,1026.41425094
2018-07-03T01:56:06.913Z,1026.44811482
2018-07-03T01:56:19.304Z,1026.44811482
2018-07-03T01:56:31.740Z,1026.44811482
2018-07-03T01:56:44.162Z,1026.44811482
2018-07-03T01:56:56.574Z,1026.44811482
2018-07-03T01:57:08.970Z,1026.38038706
2018-07-03T01:57:21.358Z,1026.38038706
2018-07-03T01:57:33.753Z,1026.38038706
2018-07-03T01:57:46.146Z,1026.38038706
2018-07-03T01:57:58.535Z,1026.38038706
2018-07-03T01:58:10.930Z,1026.51584258
2018-07-03T01:58:23.330Z,1026.51584258
2018-07-03T01:58:35.860Z,1026.51584258
2018-07-03T01:58:48.254Z,1026.51584258
2018-07-03T01:59:00.671Z,1026.51584258
2018-07-03T01:59:13.072Z,1026.4819787
2018-07-03T01:59:25.463Z,1026.4819787
2018-07-03T01:59:37.845Z,1026.4819787
2018-07-03T01:59:50.245Z,1026.4819787
2018-07-03T02:00:02.661Z,1026.4819787
2018-07-03T02:00:15.087Z,1026.4819787
2018-07-03T02:00:27.537Z,1026.4819787
2018-07-03T02:00:39.976Z,1026.4819787
2018-07-03T02:00:52.411Z,1026.4819787
2018-07-03T02:01:04.806Z,1026.51584258
2018-07-03T02:01:17.356Z,1026.51584258
2018-07-03T02:01:30.011Z,1026.51584258
2018-07-03T02:01:42.409Z,1026.51584258
2018-07-03T02:01:54.810Z,1026.51584258
2018-07-03T02:02:07.209Z,1026.51584258
2018-07-03T02:02:19.611Z,1026.51584258
2018-07-03T02:02:32.026Z,1026.51584258
2018-07-03T02:02:44.403Z,1026.51584258
2018-07-03T02:02:56.835Z,1026.51584258
2018-07-03T02:03:09.255Z,1026.54970646
2018-07-03T02:03:21.654Z,1026.54970646
2018-07-03T02:03:34.073Z,1026.54970646
2018-07-03T02:03:46.488Z,1026.54970646
2018-07-03T02:03:58.884Z,1026.54970646
2018-07-03T02:04:11.289Z,1026.51584258
2018-07-03T02:04:23.689Z,1026.51584258
2018-07-03T02:04:36.079Z,1026.51584258
2018-07-03T02:04:48.484Z,1026.51584258
2018-07-03T02:05:00.944Z,1026.51584258
2018-07-03T02:05:13.356Z,1026.4819787
2018-07-03T02:05:25.768Z,1026.4819787
2018-07-03T02:05:38.179Z,1026.4819787
2018-07-03T02:05:50.595Z,1026.4819787
2018-07-03T02:06:02.993Z,1026.4819787
2018-07-03T02:06:15.400Z,1026.4819787
2018-07-03T02:06:27.906Z,1026.4819787
2018-07-03T02:06:40.297Z,1026.4819787
2018-07-03T02:06:52.695Z,1026.4819787
2018-07-03T02:07:05.257Z,1026.51584258
2018-07-03T02:07:17.646Z,1026.51584258
2018-07-03T02:07:30.038Z,1026.51584258